sensor_id;sensor_type;location;lat;lon;timestamp;P1;durP1;ratioP1;P2;durP2;ratioP2
12208;SDS011;6167;43.080;25.634;2023-07-13T00:01:44;16.20;;;12.70;;
12208;SDS011;6167;43.080;25.634;2023-07-13T00:04:14;14.30;;;12.90;;
12208;SDS011;6167;43.080;25.634;2023-07-13T00:06:41;14.02;;;12.73;;
12208;SDS011;6167;43.080;25.634;2023-07-13T00:09:10;13.98;;;12.50;;
12208;SDS011;6167;43.080;25.634;2023-07-13T00:11:37;14.00;;;12.70;;
12208;SDS011;6167;43.080;25.634;2023-07-13T00:14:04;14.18;;;12.70;;
12208;SDS011;6167;43.080;25.634;2023-07-13T00:16:30;14.10;;;12.77;;
12208;SDS011;6167;43.080;25.634;2023-07-13T00:18:58;14.15;;;12.68;;
12208;SDS011;6167;43.080;25.634;2023-07-13T00:21:26;14.40;;;12.90;;
12208;SDS011;6167;43.080;25.634;2023-07-13T00:23:52;14.38;;;12.88;;
12208;SDS011;6167;43.080;25.634;2023-07-13T00:26:19;13.80;;;12.40;;
12208;SDS011;6167;43.080;25.634;2023-07-13T00:28:46;14.73;;;13.32;;
12208;SDS011;6167;43.080;25.634;2023-07-13T00:31:12;13.90;;;12.40;;
12208;SDS011;6167;43.080;25.634;2023-07-13T00:33:40;14.70;;;13.18;;
12208;SDS011;6167;43.080;25.634;2023-07-13T00:36:08;14.10;;;12.70;;
12208;SDS011;6167;43.080;25.634;2023-07-13T00:38:35;16.30;;;12.68;;
12208;SDS011;6167;43.080;25.634;2023-07-13T00:41:02;15.23;;;12.52;;
12208;SDS011;6167;43.080;25.634;2023-07-13T00:43:29;14.50;;;13.00;;
12208;SDS011;6167;43.080;25.634;2023-07-13T00:46:17;13.60;;;12.30;;
12208;SDS011;6167;43.080;25.634;2023-07-13T00:48:43;15.38;;;13.13;;
12208;SDS011;6167;43.080;25.634;2023-07-13T00:51:13;15.10;;;12.50;;
12208;SDS011;6167;43.080;25.634;2023-07-13T00:53:40;15.10;;;12.98;;
12208;SDS011;6167;43.080;25.634;2023-07-13T00:56:06;13.25;;;11.95;;
12208;SDS011;6167;43.080;25.634;2023-07-13T00:58:33;14.77;;;13.35;;
12208;SDS011;6167;43.080;25.634;2023-07-13T01:01:01;14.23;;;12.40;;
12208;SDS011;6167;43.080;25.634;2023-07-13T01:03:27;14.30;;;12.73;;
12208;SDS011;6167;43.080;25.634;2023-07-13T01:05:54;16.63;;;13.52;;
12208;SDS011;6167;43.080;25.634;2023-07-13T01:08:22;14.18;;;12.68;;
12208;SDS011;6167;43.080;25.634;2023-07-13T01:10:52;15.95;;;12.35;;
12208;SDS011;6167;43.080;25.634;2023-07-13T01:13:19;13.50;;;12.15;;
12208;SDS011;6167;43.080;25.634;2023-07-13T01:15:47;13.27;;;11.98;;
12208;SDS011;6167;43.080;25.634;2023-07-13T01:18:15;13.98;;;12.38;;
12208;SDS011;6167;43.080;25.634;2023-07-13T01:20:47;14.15;;;12.38;;
12208;SDS011;6167;43.080;25.634;2023-07-13T01:23:14;14.07;;;12.57;;
12208;SDS011;6167;43.080;25.634;2023-07-13T01:25:40;14.20;;;12.80;;
12208;SDS011;6167;43.080;25.634;2023-07-13T01:28:08;13.85;;;12.38;;
12208;SDS011;6167;43.080;25.634;2023-07-13T01:30:35;13.95;;;12.63;;
12208;SDS011;6167;43.080;25.634;2023-07-13T01:33:03;12.88;;;11.63;;
12208;SDS011;6167;43.080;25.634;2023-07-13T01:35:30;13.40;;;11.88;;
12208;SDS011;6167;43.080;25.634;2023-07-13T01:37:58;13.05;;;11.80;;
12208;SDS011;6167;43.080;25.634;2023-07-13T01:40:26;13.88;;;12.57;;
12208;SDS011;6167;43.080;25.634;2023-07-13T01:42:53;14.30;;;12.80;;
12208;SDS011;6167;43.080;25.634;2023-07-13T01:45:19;13.35;;;11.95;;
12208;SDS011;6167;43.080;25.634;2023-07-13T01:47:46;13.60;;;12.20;;
12208;SDS011;6167;43.080;25.634;2023-07-13T01:50:13;14.93;;;12.80;;
12208;SDS011;6167;43.080;25.634;2023-07-13T01:52:39;13.98;;;12.55;;
12208;SDS011;6167;43.080;25.634;2023-07-13T01:55:08;14.32;;;12.32;;
12208;SDS011;6167;43.080;25.634;2023-07-13T01:57:34;13.77;;;12.45;;
12208;SDS011;6167;43.080;25.634;2023-07-13T02:00:03;14.52;;;13.10;;
12208;SDS011;6167;43.080;25.634;2023-07-13T02:02:30;13.88;;;12.48;;
12208;SDS011;6167;43.080;25.634;2023-07-13T02:04:56;14.68;;;12.75;;
12208;SDS011;6167;43.080;25.634;2023-07-13T02:07:23;14.82;;;13.35;;
12208;SDS011;6167;43.080;25.634;2023-07-13T02:09:51;15.18;;;13.45;;
12208;SDS011;6167;43.080;25.634;2023-07-13T02:12:19;14.68;;;13.13;;
12208;SDS011;6167;43.080;25.634;2023-07-13T02:14:45;14.90;;;13.10;;
12208;SDS011;6167;43.080;25.634;2023-07-13T02:17:12;14.40;;;11.77;;
12208;SDS011;6167;43.080;25.634;2023-07-13T02:19:39;13.27;;;11.98;;
12208;SDS011;6167;43.080;25.634;2023-07-13T02:22:05;13.63;;;12.25;;
12208;SDS011;6167;43.080;25.634;2023-07-13T02:24:32;13.45;;;12.13;;
12208;SDS011;6167;43.080;25.634;2023-07-13T02:26:59;14.38;;;12.38;;
12208;SDS011;6167;43.080;25.634;2023-07-13T02:29:27;14.73;;;13.07;;
12208;SDS011;6167;43.080;25.634;2023-07-13T02:31:53;13.88;;;12.38;;
12208;SDS011;6167;43.080;25.634;2023-07-13T02:34:20;13.07;;;11.73;;
12208;SDS011;6167;43.080;25.634;2023-07-13T02:36:47;15.15;;;12.30;;
12208;SDS011;6167;43.080;25.634;2023-07-13T02:39:13;13.95;;;12.15;;
12208;SDS011;6167;43.080;25.634;2023-07-13T02:41:40;13.02;;;11.73;;
12208;SDS011;6167;43.080;25.634;2023-07-13T02:44:07;13.05;;;11.75;;
12208;SDS011;6167;43.080;25.634;2023-07-13T02:46:36;13.52;;;11.65;;
12208;SDS011;6167;43.080;25.634;2023-07-13T02:49:02;14.00;;;12.27;;
12208;SDS011;6167;43.080;25.634;2023-07-13T02:51:29;13.32;;;11.93;;
12208;SDS011;6167;43.080;25.634;2023-07-13T02:53:58;13.85;;;11.30;;
12208;SDS011;6167;43.080;25.634;2023-07-13T02:56:26;12.77;;;11.40;;
12208;SDS011;6167;43.080;25.634;2023-07-13T02:58:52;12.38;;;11.18;;
12208;SDS011;6167;43.080;25.634;2023-07-13T03:01:20;13.18;;;11.60;;
12208;SDS011;6167;43.080;25.634;2023-07-13T03:03:48;13.77;;;12.18;;
12208;SDS011;6167;43.080;25.634;2023-07-13T03:06:15;15.23;;;12.10;;
12208;SDS011;6167;43.080;25.634;2023-07-13T03:08:42;12.77;;;11.48;;
12208;SDS011;6167;43.080;25.634;2023-07-13T03:11:09;13.65;;;11.75;;
12208;SDS011;6167;43.080;25.634;2023-07-13T03:13:36;14.07;;;11.70;;
12208;SDS011;6167;43.080;25.634;2023-07-13T03:16:03;12.98;;;11.77;;
12208;SDS011;6167;43.080;25.634;2023-07-13T03:18:30;13.88;;;12.20;;
12208;SDS011;6167;43.080;25.634;2023-07-13T03:20:58;13.02;;;11.63;;
12208;SDS011;6167;43.080;25.634;2023-07-13T03:23:27;15.73;;;12.38;;
12208;SDS011;6167;43.080;25.634;2023-07-13T03:26:00;13.68;;;12.27;;
12208;SDS011;6167;43.080;25.634;2023-07-13T03:28:27;16.42;;;12.13;;
12208;SDS011;6167;43.080;25.634;2023-07-13T03:30:59;18.10;;;12.50;;
12208;SDS011;6167;43.080;25.634;2023-07-13T03:33:25;16.98;;;12.85;;
12208;SDS011;6167;43.080;25.634;2023-07-13T03:35:52;19.08;;;14.02;;
12208;SDS011;6167;43.080;25.634;2023-07-13T03:38:20;19.00;;;14.10;;
12208;SDS011;6167;43.080;25.634;2023-07-13T03:40:47;21.90;;;13.48;;
12208;SDS011;6167;43.080;25.634;2023-07-13T03:43:14;19.05;;;13.88;;
12208;SDS011;6167;43.080;25.634;2023-07-13T03:45:40;20.85;;;14.95;;
12208;SDS011;6167;43.080;25.634;2023-07-13T03:48:07;21.98;;;15.60;;
12208;SDS011;6167;43.080;25.634;2023-07-13T03:50:36;18.55;;;14.45;;
12208;SDS011;6167;43.080;25.634;2023-07-13T03:53:03;21.95;;;16.02;;
12208;SDS011;6167;43.080;25.634;2023-07-13T03:55:32;18.92;;;14.90;;
12208;SDS011;6167;43.080;25.634;2023-07-13T03:58:00;21.15;;;15.10;;
12208;SDS011;6167;43.080;25.634;2023-07-13T04:00:27;22.17;;;14.90;;
12208;SDS011;6167;43.080;25.634;2023-07-13T04:02:54;20.67;;;15.38;;
12208;SDS011;6167;43.080;25.634;2023-07-13T04:05:21;21.63;;;15.23;;
12208;SDS011;6167;43.080;25.634;2023-07-13T04:07:48;19.77;;;14.00;;
12208;SDS011;6167;43.080;25.634;2023-07-13T04:10:15;21.25;;;15.63;;
12208;SDS011;6167;43.080;25.634;2023-07-13T04:12:43;19.40;;;15.20;;
12208;SDS011;6167;43.080;25.634;2023-07-13T04:15:09;17.05;;;13.90;;
12208;SDS011;6167;43.080;25.634;2023-07-13T04:17:36;22.60;;;14.48;;
12208;SDS011;6167;43.080;25.634;2023-07-13T04:20:03;19.02;;;13.77;;
12208;SDS011;6167;43.080;25.634;2023-07-13T04:22:29;17.33;;;13.65;;
12208;SDS011;6167;43.080;25.634;2023-07-13T04:24:56;15.52;;;13.32;;
12208;SDS011;6167;43.080;25.634;2023-07-13T04:27:23;13.68;;;10.60;;
12208;SDS011;6167;43.080;25.634;2023-07-13T04:29:52;14.23;;;11.02;;
12208;SDS011;6167;43.080;25.634;2023-07-13T04:32:18;13.77;;;11.90;;
12208;SDS011;6167;43.080;25.634;2023-07-13T04:34:45;14.75;;;10.93;;
12208;SDS011;6167;43.080;25.634;2023-07-13T04:37:12;14.80;;;11.60;;
12208;SDS011;6167;43.080;25.634;2023-07-13T04:39:38;13.75;;;11.80;;
12208;SDS011;6167;43.080;25.634;2023-07-13T04:42:05;17.15;;;12.52;;
12208;SDS011;6167;43.080;25.634;2023-07-13T04:44:32;17.30;;;12.77;;
12208;SDS011;6167;43.080;25.634;2023-07-13T04:47:00;15.68;;;12.88;;
12208;SDS011;6167;43.080;25.634;2023-07-13T04:49:26;15.75;;;11.63;;
12208;SDS011;6167;43.080;25.634;2023-07-13T04:51:53;15.77;;;11.82;;
12208;SDS011;6167;43.080;25.634;2023-07-13T04:54:20;13.77;;;11.88;;
12208;SDS011;6167;43.080;25.634;2023-07-13T04:56:46;13.45;;;11.95;;
12208;SDS011;6167;43.080;25.634;2023-07-13T04:59:13;17.33;;;11.70;;
12208;SDS011;6167;43.080;25.634;2023-07-13T05:01:40;17.40;;;11.57;;
12208;SDS011;6167;43.080;25.634;2023-07-13T05:04:08;12.75;;;11.43;;
12208;SDS011;6167;43.080;25.634;2023-07-13T05:06:34;14.13;;;11.45;;
12208;SDS011;6167;43.080;25.634;2023-07-13T05:09:01;13.07;;;11.35;;
12208;SDS011;6167;43.080;25.634;2023-07-13T05:11:28;16.20;;;12.23;;
12208;SDS011;6167;43.080;25.634;2023-07-13T05:13:54;13.15;;;11.45;;
12208;SDS011;6167;43.080;25.634;2023-07-13T05:16:21;13.60;;;11.23;;
12208;SDS011;6167;43.080;25.634;2023-07-13T05:18:48;14.85;;;12.80;;
12208;SDS011;6167;43.080;25.634;2023-07-13T05:21:16;13.20;;;11.50;;
12208;SDS011;6167;43.080;25.634;2023-07-13T05:23:43;13.90;;;11.15;;
12208;SDS011;6167;43.080;25.634;2023-07-13T05:26:13;11.35;;;10.18;;
12208;SDS011;6167;43.080;25.634;2023-07-13T05:28:39;11.75;;;10.35;;
12208;SDS011;6167;43.080;25.634;2023-07-13T05:31:07;11.70;;;9.98;;
12208;SDS011;6167;43.080;25.634;2023-07-13T05:33:34;10.15;;;9.15;;
12208;SDS011;6167;43.080;25.634;2023-07-13T05:36:01;10.73;;;9.73;;
12208;SDS011;6167;43.080;25.634;2023-07-13T05:38:29;10.82;;;9.82;;
12208;SDS011;6167;43.080;25.634;2023-07-13T05:40:56;10.45;;;9.32;;
12208;SDS011;6167;43.080;25.634;2023-07-13T05:43:23;13.85;;;10.23;;
12208;SDS011;6167;43.080;25.634;2023-07-13T05:45:51;10.57;;;9.20;;
12208;SDS011;6167;43.080;25.634;2023-07-13T05:48:17;10.13;;;9.23;;
12208;SDS011;6167;43.080;25.634;2023-07-13T05:50:44;10.32;;;9.32;;
12208;SDS011;6167;43.080;25.634;2023-07-13T05:53:11;10.30;;;9.30;;
12208;SDS011;6167;43.080;25.634;2023-07-13T05:55:41;9.65;;;8.85;;
12208;SDS011;6167;43.080;25.634;2023-07-13T05:58:08;9.77;;;8.88;;
12208;SDS011;6167;43.080;25.634;2023-07-13T06:00:35;10.15;;;9.15;;
12208;SDS011;6167;43.080;25.634;2023-07-13T06:03:02;9.75;;;8.85;;
12208;SDS011;6167;43.080;25.634;2023-07-13T06:05:29;10.55;;;9.55;;
12208;SDS011;6167;43.080;25.634;2023-07-13T06:07:55;11.40;;;9.70;;
12208;SDS011;6167;43.080;25.634;2023-07-13T06:10:22;10.52;;;9.20;;
12208;SDS011;6167;43.080;25.634;2023-07-13T06:12:50;10.18;;;9.10;;
12208;SDS011;6167;43.080;25.634;2023-07-13T06:15:17;10.32;;;8.90;;
12208;SDS011;6167;43.080;25.634;2023-07-13T06:17:44;10.38;;;9.30;;
12208;SDS011;6167;43.080;25.634;2023-07-13T06:20:11;16.50;;;11.43;;
12208;SDS011;6167;43.080;25.634;2023-07-13T06:22:38;50.00;;;30.90;;
12208;SDS011;6167;43.080;25.634;2023-07-13T06:25:05;12.88;;;11.27;;
12208;SDS011;6167;43.080;25.634;2023-07-13T06:27:32;10.93;;;9.77;;
12208;SDS011;6167;43.080;25.634;2023-07-13T06:30:00;14.30;;;10.10;;
12208;SDS011;6167;43.080;25.634;2023-07-13T06:32:27;11.00;;;9.90;;
12208;SDS011;6167;43.080;25.634;2023-07-13T06:34:53;15.35;;;9.52;;
12208;SDS011;6167;43.080;25.634;2023-07-13T06:37:20;12.68;;;9.23;;
12208;SDS011;6167;43.080;25.634;2023-07-13T06:39:47;10.85;;;9.80;;
12208;SDS011;6167;43.080;25.634;2023-07-13T06:42:15;14.15;;;10.63;;
12208;SDS011;6167;43.080;25.634;2023-07-13T06:44:42;13.60;;;9.63;;
12208;SDS011;6167;43.080;25.634;2023-07-13T06:47:10;18.52;;;14.27;;
12208;SDS011;6167;43.080;25.634;2023-07-13T06:49:37;10.43;;;9.32;;
12208;SDS011;6167;43.080;25.634;2023-07-13T06:52:04;13.80;;;9.20;;
12208;SDS011;6167;43.080;25.634;2023-07-13T06:54:31;10.27;;;9.30;;
12208;SDS011;6167;43.080;25.634;2023-07-13T06:56:58;11.43;;;9.48;;
12208;SDS011;6167;43.080;25.634;2023-07-13T06:59:24;11.77;;;9.63;;
12208;SDS011;6167;43.080;25.634;2023-07-13T07:01:51;10.52;;;8.75;;
12208;SDS011;6167;43.080;25.634;2023-07-13T07:04:19;9.75;;;8.77;;
12208;SDS011;6167;43.080;25.634;2023-07-13T07:06:46;10.40;;;9.27;;
12208;SDS011;6167;43.080;25.634;2023-07-13T07:09:12;10.05;;;9.25;;
12208;SDS011;6167;43.080;25.634;2023-07-13T07:11:39;12.88;;;9.80;;
12208;SDS011;6167;43.080;25.634;2023-07-13T07:14:07;12.23;;;9.75;;
12208;SDS011;6167;43.080;25.634;2023-07-13T07:16:33;9.90;;;8.90;;
12208;SDS011;6167;43.080;25.634;2023-07-13T07:19:00;10.10;;;9.20;;
12208;SDS011;6167;43.080;25.634;2023-07-13T07:21:28;10.77;;;9.88;;
12208;SDS011;6167;43.080;25.634;2023-07-13T07:23:54;11.15;;;10.10;;
12208;SDS011;6167;43.080;25.634;2023-07-13T07:26:21;12.45;;;10.35;;
12208;SDS011;6167;43.080;25.634;2023-07-13T07:28:48;11.07;;;9.98;;
12208;SDS011;6167;43.080;25.634;2023-07-13T07:31:14;11.82;;;10.15;;
12208;SDS011;6167;43.080;25.634;2023-07-13T07:33:41;11.00;;;10.00;;
12208;SDS011;6167;43.080;25.634;2023-07-13T07:36:10;10.15;;;9.25;;
12208;SDS011;6167;43.080;25.634;2023-07-13T07:38:39;11.07;;;10.07;;
12208;SDS011;6167;43.080;25.634;2023-07-13T07:41:14;11.95;;;10.73;;
12208;SDS011;6167;43.080;25.634;2023-07-13T07:43:41;10.75;;;9.75;;
12208;SDS011;6167;43.080;25.634;2023-07-13T07:46:07;10.52;;;9.63;;
12208;SDS011;6167;43.080;25.634;2023-07-13T07:48:34;10.85;;;9.73;;
12208;SDS011;6167;43.080;25.634;2023-07-13T07:51:00;11.30;;;9.20;;
12208;SDS011;6167;43.080;25.634;2023-07-13T07:53:27;11.00;;;9.70;;
12208;SDS011;6167;43.080;25.634;2023-07-13T07:55:55;10.77;;;9.20;;
12208;SDS011;6167;43.080;25.634;2023-07-13T07:58:21;10.93;;;9.80;;
12208;SDS011;6167;43.080;25.634;2023-07-13T08:00:48;10.68;;;9.68;;
12208;SDS011;6167;43.080;25.634;2023-07-13T08:03:15;10.18;;;9.35;;
12208;SDS011;6167;43.080;25.634;2023-07-13T08:05:41;10.82;;;9.75;;
12208;SDS011;6167;43.080;25.634;2023-07-13T08:08:08;11.20;;;10.10;;
12208;SDS011;6167;43.080;25.634;2023-07-13T08:10:35;14.50;;;10.20;;
12208;SDS011;6167;43.080;25.634;2023-07-13T08:13:03;11.32;;;10.32;;
12208;SDS011;6167;43.080;25.634;2023-07-13T08:15:29;12.65;;;10.93;;
12208;SDS011;6167;43.080;25.634;2023-07-13T08:17:56;13.23;;;11.13;;
12208;SDS011;6167;43.080;25.634;2023-07-13T08:20:22;12.45;;;11.30;;
12208;SDS011;6167;43.080;25.634;2023-07-13T08:22:49;11.60;;;10.38;;
12208;SDS011;6167;43.080;25.634;2023-07-13T08:25:16;10.82;;;9.73;;
12208;SDS011;6167;43.080;25.634;2023-07-13T08:27:42;12.77;;;11.63;;
12208;SDS011;6167;43.080;25.634;2023-07-13T08:30:11;9.93;;;9.00;;
12208;SDS011;6167;43.080;25.634;2023-07-13T08:32:37;9.35;;;8.45;;
12208;SDS011;6167;43.080;25.634;2023-07-13T08:35:04;12.00;;;8.88;;
12208;SDS011;6167;43.080;25.634;2023-07-13T08:37:31;9.90;;;7.40;;
12208;SDS011;6167;43.080;25.634;2023-07-13T08:39:58;6.70;;;6.10;;
12208;SDS011;6167;43.080;25.634;2023-07-13T08:42:31;7.28;;;6.78;;
12208;SDS011;6167;43.080;25.634;2023-07-13T08:45:03;8.02;;;7.30;;
12208;SDS011;6167;43.080;25.634;2023-07-13T08:47:32;7.13;;;5.55;;
12208;SDS011;6167;43.080;25.634;2023-07-13T08:50:02;5.85;;;5.25;;
12208;SDS011;6167;43.080;25.634;2023-07-13T08:52:30;6.82;;;5.10;;
12208;SDS011;6167;43.080;25.634;2023-07-13T08:54:58;7.72;;;5.30;;
12208;SDS011;6167;43.080;25.634;2023-07-13T08:57:31;6.68;;;6.18;;
12208;SDS011;6167;43.080;25.634;2023-07-13T08:59:59;5.93;;;5.35;;
12208;SDS011;6167;43.080;25.634;2023-07-13T09:02:26;5.85;;;5.35;;
12208;SDS011;6167;43.080;25.634;2023-07-13T09:04:55;6.22;;;5.72;;
12208;SDS011;6167;43.080;25.634;2023-07-13T09:07:25;5.75;;;5.20;;
12208;SDS011;6167;43.080;25.634;2023-07-13T09:09:57;6.25;;;5.65;;
12208;SDS011;6167;43.080;25.634;2023-07-13T09:12:31;6.72;;;6.03;;
12208;SDS011;6167;43.080;25.634;2023-07-13T09:15:01;6.75;;;6.15;;
12208;SDS011;6167;43.080;25.634;2023-07-13T09:17:31;6.53;;;6.00;;
12208;SDS011;6167;43.080;25.634;2023-07-13T09:20:02;6.70;;;5.47;;
12208;SDS011;6167;43.080;25.634;2023-07-13T09:22:30;6.30;;;5.80;;
12208;SDS011;6167;43.080;25.634;2023-07-13T09:25:00;5.63;;;5.13;;
12208;SDS011;6167;43.080;25.634;2023-07-13T09:27:30;7.00;;;5.75;;
12208;SDS011;6167;43.080;25.634;2023-07-13T09:30:02;5.32;;;4.82;;
12208;SDS011;6167;43.080;25.634;2023-07-13T09:32:30;5.97;;;5.30;;
12208;SDS011;6167;43.080;25.634;2023-07-13T09:34:57;5.15;;;4.60;;
12208;SDS011;6167;43.080;25.634;2023-07-13T09:37:30;7.53;;;5.57;;
12208;SDS011;6167;43.080;25.634;2023-07-13T09:39:58;5.10;;;4.60;;
12208;SDS011;6167;43.080;25.634;2023-07-13T09:42:25;5.18;;;4.68;;
12208;SDS011;6167;43.080;25.634;2023-07-13T09:44:54;7.00;;;4.63;;
12208;SDS011;6167;43.080;25.634;2023-07-13T09:47:21;4.53;;;4.10;;
12208;SDS011;6167;43.080;25.634;2023-07-13T09:49:53;5.45;;;4.85;;
12208;SDS011;6167;43.080;25.634;2023-07-13T09:52:20;5.25;;;4.75;;
12208;SDS011;6167;43.080;25.634;2023-07-13T09:54:48;5.50;;;5.00;;
12208;SDS011;6167;43.080;25.634;2023-07-13T09:57:16;6.43;;;4.80;;
12208;SDS011;6167;43.080;25.634;2023-07-13T09:59:44;5.38;;;4.90;;
12208;SDS011;6167;43.080;25.634;2023-07-13T10:04:56;8.30;;;4.70;;
12208;SDS011;6167;43.080;25.634;2023-07-13T10:07:24;6.00;;;5.07;;
12208;SDS011;6167;43.080;25.634;2023-07-13T10:09:53;5.15;;;4.45;;
12208;SDS011;6167;43.080;25.634;2023-07-13T10:12:20;6.97;;;5.65;;
12208;SDS011;6167;43.080;25.634;2023-07-13T10:14:48;8.57;;;5.10;;
12208;SDS011;6167;43.080;25.634;2023-07-13T10:17:16;6.50;;;4.80;;
12208;SDS011;6167;43.080;25.634;2023-07-13T10:19:46;5.68;;;5.07;;
12208;SDS011;6167;43.080;25.634;2023-07-13T10:22:14;5.25;;;4.72;;
12208;SDS011;6167;43.080;25.634;2023-07-13T10:24:46;5.97;;;4.72;;
12208;SDS011;6167;43.080;25.634;2023-07-13T10:27:15;6.57;;;4.65;;
12208;SDS011;6167;43.080;25.634;2023-07-13T10:29:43;9.05;;;4.85;;
12208;SDS011;6167;43.080;25.634;2023-07-13T10:32:11;6.25;;;5.60;;
12208;SDS011;6167;43.080;25.634;2023-07-13T10:34:41;5.35;;;4.82;;
12208;SDS011;6167;43.080;25.634;2023-07-13T10:37:12;4.53;;;4.13;;
12208;SDS011;6167;43.080;25.634;2023-07-13T10:39:42;5.43;;;4.40;;
12208;SDS011;6167;43.080;25.634;2023-07-13T10:42:11;7.18;;;4.72;;
12208;SDS011;6167;43.080;25.634;2023-07-13T10:44:40;9.07;;;4.72;;
12208;SDS011;6167;43.080;25.634;2023-07-13T10:47:07;5.38;;;4.60;;
12208;SDS011;6167;43.080;25.634;2023-07-13T10:49:35;7.00;;;4.35;;
12208;SDS011;6167;43.080;25.634;2023-07-13T10:52:02;7.88;;;4.85;;
12208;SDS011;6167;43.080;25.634;2023-07-13T10:54:30;7.40;;;3.85;;
12208;SDS011;6167;43.080;25.634;2023-07-13T10:57:16;5.30;;;4.80;;
12208;SDS011;6167;43.080;25.634;2023-07-13T10:59:45;7.75;;;4.47;;
12208;SDS011;6167;43.080;25.634;2023-07-13T11:02:15;5.43;;;4.47;;
12208;SDS011;6167;43.080;25.634;2023-07-13T11:04:44;5.07;;;4.57;;
12208;SDS011;6167;43.080;25.634;2023-07-13T11:07:18;5.85;;;4.75;;
12208;SDS011;6167;43.080;25.634;2023-07-13T11:09:48;5.00;;;4.03;;
12208;SDS011;6167;43.080;25.634;2023-07-13T11:12:28;6.75;;;4.78;;
12208;SDS011;6167;43.080;25.634;2023-07-13T11:15:26;5.25;;;4.75;;
12208;SDS011;6167;43.080;25.634;2023-07-13T11:17:54;5.47;;;4.90;;
12208;SDS011;6167;43.080;25.634;2023-07-13T11:25:49;7.65;;;4.47;;
12208;SDS011;6167;43.080;25.634;2023-07-13T11:28:16;7.10;;;4.40;;
12208;SDS011;6167;43.080;25.634;2023-07-13T11:30:46;5.50;;;4.30;;
12208;SDS011;6167;43.080;25.634;2023-07-13T11:33:14;7.53;;;4.38;;
12208;SDS011;6167;43.080;25.634;2023-07-13T11:35:44;4.63;;;4.22;;
12208;SDS011;6167;43.080;25.634;2023-07-13T11:38:12;9.38;;;4.53;;
12208;SDS011;6167;43.080;25.634;2023-07-13T11:40:39;7.68;;;4.55;;
12208;SDS011;6167;43.080;25.634;2023-07-13T11:43:11;7.80;;;5.00;;
12208;SDS011;6167;43.080;25.634;2023-07-13T11:45:38;8.38;;;4.45;;
12208;SDS011;6167;43.080;25.634;2023-07-13T11:48:16;7.32;;;4.25;;
12208;SDS011;6167;43.080;25.634;2023-07-13T11:50:48;5.80;;;4.28;;
12208;SDS011;6167;43.080;25.634;2023-07-13T11:53:15;8.55;;;4.05;;
12208;SDS011;6167;43.080;25.634;2023-07-13T11:55:42;5.15;;;4.18;;
12208;SDS011;6167;43.080;25.634;2023-07-13T11:58:09;5.90;;;4.13;;
12208;SDS011;6167;43.080;25.634;2023-07-13T12:00:36;5.50;;;4.55;;
12208;SDS011;6167;43.080;25.634;2023-07-13T12:03:05;6.35;;;4.50;;
12208;SDS011;6167;43.080;25.634;2023-07-13T12:05:34;6.45;;;4.68;;
12208;SDS011;6167;43.080;25.634;2023-07-13T12:08:08;5.03;;;4.53;;
12208;SDS011;6167;43.080;25.634;2023-07-13T12:10:36;7.57;;;4.68;;
12208;SDS011;6167;43.080;25.634;2023-07-13T12:13:03;5.63;;;4.80;;
12208;SDS011;6167;43.080;25.634;2023-07-13T12:15:32;5.22;;;4.57;;
12208;SDS011;6167;43.080;25.634;2023-07-13T12:18:01;5.28;;;4.70;;
12208;SDS011;6167;43.080;25.634;2023-07-13T12:20:28;6.30;;;4.35;;
12208;SDS011;6167;43.080;25.634;2023-07-13T12:23:01;5.20;;;4.70;;
12208;SDS011;6167;43.080;25.634;2023-07-13T12:25:30;6.55;;;4.70;;
12208;SDS011;6167;43.080;25.634;2023-07-13T12:27:57;9.30;;;4.70;;
12208;SDS011;6167;43.080;25.634;2023-07-13T12:30:27;5.93;;;5.03;;
12208;SDS011;6167;43.080;25.634;2023-07-13T12:32:56;5.55;;;4.60;;
12208;SDS011;6167;43.080;25.634;2023-07-13T12:35:23;6.13;;;4.70;;
12208;SDS011;6167;43.080;25.634;2023-07-13T12:37:50;5.15;;;4.70;;
12208;SDS011;6167;43.080;25.634;2023-07-13T12:40:19;5.07;;;4.57;;
12208;SDS011;6167;43.080;25.634;2023-07-13T12:42:47;7.03;;;4.63;;
12208;SDS011;6167;43.080;25.634;2023-07-13T12:45:17;5.22;;;4.70;;
12208;SDS011;6167;43.080;25.634;2023-07-13T12:47:47;6.22;;;4.80;;
12208;SDS011;6167;43.080;25.634;2023-07-13T12:50:15;6.00;;;4.88;;
12208;SDS011;6167;43.080;25.634;2023-07-13T12:52:42;5.88;;;4.70;;
12208;SDS011;6167;43.080;25.634;2023-07-13T12:55:11;5.93;;;4.40;;
12208;SDS011;6167;43.080;25.634;2023-07-13T12:57:43;5.88;;;4.82;;
12208;SDS011;6167;43.080;25.634;2023-07-13T13:00:23;7.50;;;5.00;;
12208;SDS011;6167;43.080;25.634;2023-07-13T13:02:50;6.68;;;4.78;;
12208;SDS011;6167;43.080;25.634;2023-07-13T13:05:17;6.10;;;4.93;;
12208;SDS011;6167;43.080;25.634;2023-07-13T13:07:49;6.10;;;4.90;;
12208;SDS011;6167;43.080;25.634;2023-07-13T13:10:15;7.22;;;5.20;;
12208;SDS011;6167;43.080;25.634;2023-07-13T13:12:43;5.93;;;4.75;;
12208;SDS011;6167;43.080;25.634;2023-07-13T13:15:10;5.32;;;4.75;;
12208;SDS011;6167;43.080;25.634;2023-07-13T13:17:37;5.15;;;4.55;;
12208;SDS011;6167;43.080;25.634;2023-07-13T13:20:11;6.63;;;4.72;;
12208;SDS011;6167;43.080;25.634;2023-07-13T13:22:40;4.93;;;4.53;;
12208;SDS011;6167;43.080;25.634;2023-07-13T13:25:07;5.28;;;4.43;;
12208;SDS011;6167;43.080;25.634;2023-07-13T13:27:34;5.95;;;4.40;;
12208;SDS011;6167;43.080;25.634;2023-07-13T13:30:02;6.57;;;5.50;;
12208;SDS011;6167;43.080;25.634;2023-07-13T13:32:30;6.72;;;4.93;;
12208;SDS011;6167;43.080;25.634;2023-07-13T13:34:57;6.63;;;4.80;;
12208;SDS011;6167;43.080;25.634;2023-07-13T13:37:23;5.10;;;4.60;;
12208;SDS011;6167;43.080;25.634;2023-07-13T13:39:52;6.82;;;4.75;;
12208;SDS011;6167;43.080;25.634;2023-07-13T13:42:20;6.00;;;5.40;;
12208;SDS011;6167;43.080;25.634;2023-07-13T13:44:50;6.00;;;5.40;;
12208;SDS011;6167;43.080;25.634;2023-07-13T13:47:21;6.20;;;5.20;;
12208;SDS011;6167;43.080;25.634;2023-07-13T13:49:51;5.43;;;5.00;;
12208;SDS011;6167;43.080;25.634;2023-07-13T13:52:17;6.32;;;4.90;;
12208;SDS011;6167;43.080;25.634;2023-07-13T13:54:44;6.07;;;4.63;;
12208;SDS011;6167;43.080;25.634;2023-07-13T13:57:11;5.10;;;4.47;;
12208;SDS011;6167;43.080;25.634;2023-07-13T13:59:39;5.22;;;4.80;;
12208;SDS011;6167;43.080;25.634;2023-07-13T14:02:11;6.93;;;5.22;;
12208;SDS011;6167;43.080;25.634;2023-07-13T14:04:47;6.03;;;4.80;;
12208;SDS011;6167;43.080;25.634;2023-07-13T14:07:14;6.30;;;4.93;;
12208;SDS011;6167;43.080;25.634;2023-07-13T14:09:41;6.55;;;5.20;;
12208;SDS011;6167;43.080;25.634;2023-07-13T14:12:08;5.32;;;4.82;;
12208;SDS011;6167;43.080;25.634;2023-07-13T14:14:37;5.85;;;5.20;;
12208;SDS011;6167;43.080;25.634;2023-07-13T14:17:04;5.68;;;5.00;;
12208;SDS011;6167;43.080;25.634;2023-07-13T14:19:32;5.55;;;4.93;;
12208;SDS011;6167;43.080;25.634;2023-07-13T14:22:00;6.60;;;5.05;;
12208;SDS011;6167;43.080;25.634;2023-07-13T14:24:27;6.65;;;5.60;;
12208;SDS011;6167;43.080;25.634;2023-07-13T14:26:53;6.45;;;5.82;;
12208;SDS011;6167;43.080;25.634;2023-07-13T14:29:20;5.78;;;5.15;;
12208;SDS011;6167;43.080;25.634;2023-07-13T14:31:47;6.65;;;5.25;;
12208;SDS011;6167;43.080;25.634;2023-07-13T14:34:13;5.78;;;5.25;;
12208;SDS011;6167;43.080;25.634;2023-07-13T14:36:40;5.70;;;5.10;;
12208;SDS011;6167;43.080;25.634;2023-07-13T14:39:12;5.50;;;4.97;;
12208;SDS011;6167;43.080;25.634;2023-07-13T14:41:40;5.82;;;5.25;;
12208;SDS011;6167;43.080;25.634;2023-07-13T14:44:13;5.40;;;4.90;;
12208;SDS011;6167;43.080;25.634;2023-07-13T14:46:40;6.82;;;5.10;;